MMTJ

General Abelardo L. Rodríguez International Airport

Tijuana, Mexico
TAF MMTJ 251712Z 2518/2624 32010KT 5SM HZ BKN015 TX24/2521Z TN16/2612Z FM252100 28010KT 5SM HZ SCT020 FM260000 00000KT 5SM HZ BKN015 FM261000 00000KT 2SM BR OVC005 FM261600 29010KT 4SM HZ BKN010
Issued Valid From Valid To
Sep-25 @ 17:12 UTC
(2 hours ago)
Sep-25 @ 18:00 UTC
(an hour ago)
Sep-27 @ 00:00 UTC
(-1 days ago)
Sep-25 @ 18:00 to Sep-25 @ 21:00
TAF MMTJ 251712Z 2518/2624 32010KT 5SM HZ BKN015 TX24/2521Z TN16/2612Z
Wind Visibility Clouds Conditions
320° at 10 knots 5 miles
  • Broken at 1,500' AGL
  • Haze
From Sep-25 @ 21:00 to Sep-26 @ 00:00
FM252100 28010KT 5SM HZ SCT020
Wind Visibility Clouds Conditions
280° at 10 knots 5 miles
  • Scattered at 2,000' AGL
  • Haze
From Sep-26 @ 00:00 to Sep-26 @ 10:00
FM260000 00000KT 5SM HZ BKN015
Visibility Clouds Conditions
5 miles
  • Broken at 1,500' AGL
  • Haze
From Sep-26 @ 10:00 to Sep-26 @ 16:00
FM261000 00000KT 2SM BR OVC005
Visibility Clouds Conditions
2 miles
  • Overcast at 500' AGL
  • Mist
From Sep-26 @ 16:00 to Sep-27 @ 00:00
FM261600 29010KT 4SM HZ BKN010
Wind Visibility Clouds Conditions
290° at 10 knots 4 miles
  • Broken at 1,000' AGL
  • Haze
TAF MMTJ 251712Z 2518/2624 32010KT 5SM HZ BKN015 TX24/2521Z TN16/2612Z FM252100 28010KT 5SM HZ SCT020 FM260000 00000KT 5SM HZ BKN015 FM261000 00000KT 2SM BR OVC005 FM261600 29010KT 4SM HZ BKN010
Issued Sep-25 @ 17:12 UTC
(2 hours ago)
Valid From Sep-25 @ 18:00 UTC
(an hour ago)
Valid To Sep-27 @ 00:00 UTC
(-1 days ago)
Sep-25 @ 18:00 - Sep-25 @ 21:00
Wind Visibility
320° at 10 knots 5 miles
Clouds
  • Broken at 1,500' AGL
Conditions
  • Haze
From Sep-25 @ 21:00 - Sep-26 @ 00:00
Wind Visibility
280° at 10 knots 5 miles
Clouds
  • Scattered at 2,000' AGL
Conditions
  • Haze
From Sep-26 @ 00:00 - Sep-26 @ 10:00
Clouds
  • Broken at 1,500' AGL
Conditions
  • Haze
From Sep-26 @ 10:00 - Sep-26 @ 16:00
Clouds
  • Overcast at 500' AGL
Conditions
  • Mist
From Sep-26 @ 16:00 - Sep-27 @ 00:00
Wind Visibility
290° at 10 knots 4 miles
Clouds
  • Broken at 1,000' AGL
Conditions
  • Haze